sensor_id;sensor_type;location;lat;lon;timestamp;P1;durP1;ratioP1;P2;durP2;ratioP2
16015;SDS011;8112;53.592;10.184;2023-05-07T00:02:13;13.73;;;12.43;;
16015;SDS011;8112;53.592;10.184;2023-05-07T00:07:15;18.27;;;13.23;;
16015;SDS011;8112;53.592;10.184;2023-05-07T00:12:18;14.27;;;12.87;;
16015;SDS011;8112;53.592;10.184;2023-05-07T00:17:20;14.80;;;13.20;;
16015;SDS011;8112;53.592;10.184;2023-05-07T00:22:22;13.47;;;12.10;;
16015;SDS011;8112;53.592;10.184;2023-05-07T00:27:25;14.07;;;12.57;;
16015;SDS011;8112;53.592;10.184;2023-05-07T00:32:29;12.57;;;11.27;;
16015;SDS011;8112;53.592;10.184;2023-05-07T00:37:30;13.63;;;12.17;;
16015;SDS011;8112;53.592;10.184;2023-05-07T00:42:34;13.80;;;12.20;;
16015;SDS011;8112;53.592;10.184;2023-05-07T00:47:37;13.43;;;12.03;;
16015;SDS011;8112;53.592;10.184;2023-05-07T00:52:39;13.17;;;11.87;;
16015;SDS011;8112;53.592;10.184;2023-05-07T00:57:44;13.50;;;11.87;;
16015;SDS011;8112;53.592;10.184;2023-05-07T01:02:46;13.90;;;12.50;;
16015;SDS011;8112;53.592;10.184;2023-05-07T01:07:48;14.13;;;12.63;;
16015;SDS011;8112;53.592;10.184;2023-05-07T01:12:54;13.47;;;12.13;;
16015;SDS011;8112;53.592;10.184;2023-05-07T01:17:57;13.03;;;11.73;;
16015;SDS011;8112;53.592;10.184;2023-05-07T01:23:07;13.77;;;12.30;;
16015;SDS011;8112;53.592;10.184;2023-05-07T01:28:11;12.37;;;10.63;;
16015;SDS011;8112;53.592;10.184;2023-05-07T01:33:18;13.23;;;11.83;;
16015;SDS011;8112;53.592;10.184;2023-05-07T01:38:24;11.47;;;10.30;;
16015;SDS011;8112;53.592;10.184;2023-05-07T01:43:26;12.30;;;10.97;;
16015;SDS011;8112;53.592;10.184;2023-05-07T01:48:30;13.07;;;10.73;;
16015;SDS011;8112;53.592;10.184;2023-05-07T01:53:37;13.97;;;11.57;;
16015;SDS011;8112;53.592;10.184;2023-05-07T01:58:39;11.43;;;10.23;;
16015;SDS011;8112;53.592;10.184;2023-05-07T02:03:42;11.80;;;10.60;;
16015;SDS011;8112;53.592;10.184;2023-05-07T02:08:55;10.60;;;9.60;;
16015;SDS011;8112;53.592;10.184;2023-05-07T02:13:56;11.60;;;10.50;;
16015;SDS011;8112;53.592;10.184;2023-05-07T02:18:59;11.70;;;10.50;;
16015;SDS011;8112;53.592;10.184;2023-05-07T02:24:05;12.70;;;11.40;;
16015;SDS011;8112;53.592;10.184;2023-05-07T02:29:07;11.70;;;10.50;;
16015;SDS011;8112;53.592;10.184;2023-05-07T02:34:11;11.03;;;10.03;;
16015;SDS011;8112;53.592;10.184;2023-05-07T02:39:16;12.13;;;10.83;;
16015;SDS011;8112;53.592;10.184;2023-05-07T02:44:18;13.37;;;12.03;;
16015;SDS011;8112;53.592;10.184;2023-05-07T02:49:23;12.03;;;10.73;;
16015;SDS011;8112;53.592;10.184;2023-05-07T02:54:27;12.07;;;10.67;;
16015;SDS011;8112;53.592;10.184;2023-05-07T02:59:29;12.87;;;11.53;;
16015;SDS011;8112;53.592;10.184;2023-05-07T03:04:31;12.30;;;11.10;;
16015;SDS011;8112;53.592;10.184;2023-05-07T03:09:36;12.40;;;11.20;;
16015;SDS011;8112;53.592;10.184;2023-05-07T03:14:38;13.07;;;11.83;;
16015;SDS011;8112;53.592;10.184;2023-05-07T03:19:41;12.27;;;11.07;;
16015;SDS011;8112;53.592;10.184;2023-05-07T03:24:44;12.17;;;10.80;;
16015;SDS011;8112;53.592;10.184;2023-05-07T03:29:46;12.67;;;11.47;;
16015;SDS011;8112;53.592;10.184;2023-05-07T03:34:49;12.37;;;11.17;;
16015;SDS011;8112;53.592;10.184;2023-05-07T03:39:53;12.67;;;11.37;;
16015;SDS011;8112;53.592;10.184;2023-05-07T03:44:55;13.00;;;11.70;;
16015;SDS011;8112;53.592;10.184;2023-05-07T03:49:57;13.07;;;11.70;;
16015;SDS011;8112;53.592;10.184;2023-05-07T03:55:01;12.40;;;11.20;;
16015;SDS011;8112;53.592;10.184;2023-05-07T04:00:05;12.00;;;10.70;;
16015;SDS011;8112;53.592;10.184;2023-05-07T04:05:20;13.00;;;11.30;;
16015;SDS011;8112;53.592;10.184;2023-05-07T04:10:28;12.60;;;11.27;;
16015;SDS011;8112;53.592;10.184;2023-05-07T04:15:32;11.63;;;10.53;;
16015;SDS011;8112;53.592;10.184;2023-05-07T04:20:34;12.57;;;10.37;;
16015;SDS011;8112;53.592;10.184;2023-05-07T04:25:41;12.20;;;10.90;;
16015;SDS011;8112;53.592;10.184;2023-05-07T04:31:01;11.90;;;10.70;;
16015;SDS011;8112;53.592;10.184;2023-05-07T04:36:06;11.80;;;9.80;;
16015;SDS011;8112;53.592;10.184;2023-05-07T04:41:16;11.93;;;9.93;;
16015;SDS011;8112;53.592;10.184;2023-05-07T04:46:18;10.90;;;9.80;;
16015;SDS011;8112;53.592;10.184;2023-05-07T04:51:21;10.73;;;9.63;;
16015;SDS011;8112;53.592;10.184;2023-05-07T04:56:25;10.17;;;8.83;;
16015;SDS011;8112;53.592;10.184;2023-05-07T05:01:29;10.00;;;9.00;;
16015;SDS011;8112;53.592;10.184;2023-05-07T05:06:31;9.50;;;8.60;;
16015;SDS011;8112;53.592;10.184;2023-05-07T05:11:37;10.70;;;9.60;;
16015;SDS011;8112;53.592;10.184;2023-05-07T05:16:42;9.93;;;8.97;;
16015;SDS011;8112;53.592;10.184;2023-05-07T05:21:44;10.27;;;8.60;;
16015;SDS011;8112;53.592;10.184;2023-05-07T05:26:48;10.37;;;9.37;;
16015;SDS011;8112;53.592;10.184;2023-05-07T05:31:50;10.17;;;9.17;;
16015;SDS011;8112;53.592;10.184;2023-05-07T05:36:53;10.13;;;9.07;;
16015;SDS011;8112;53.592;10.184;2023-05-07T05:41:57;10.47;;;9.47;;
16015;SDS011;8112;53.592;10.184;2023-05-07T05:46:59;11.40;;;9.83;;
16015;SDS011;8112;53.592;10.184;2023-05-07T05:52:03;9.70;;;8.80;;
16015;SDS011;8112;53.592;10.184;2023-05-07T05:57:07;9.83;;;8.93;;
16015;SDS011;8112;53.592;10.184;2023-05-07T06:02:09;9.73;;;8.77;;
16015;SDS011;8112;53.592;10.184;2023-05-07T06:07:12;9.97;;;9.07;;
16015;SDS011;8112;53.592;10.184;2023-05-07T06:12:17;9.50;;;8.63;;
16015;SDS011;8112;53.592;10.184;2023-05-07T06:17:21;9.10;;;8.23;;
16015;SDS011;8112;53.592;10.184;2023-05-07T06:22:24;9.30;;;8.40;;
16015;SDS011;8112;53.592;10.184;2023-05-07T06:27:28;9.53;;;8.63;;
16015;SDS011;8112;53.592;10.184;2023-05-07T06:32:30;10.53;;;9.00;;
16015;SDS011;8112;53.592;10.184;2023-05-07T06:37:33;10.00;;;8.97;;
16015;SDS011;8112;53.592;10.184;2023-05-07T06:42:41;9.17;;;8.37;;
16015;SDS011;8112;53.592;10.184;2023-05-07T06:47:59;9.63;;;8.70;;
16015;SDS011;8112;53.592;10.184;2023-05-07T06:53:04;8.93;;;8.03;;
16015;SDS011;8112;53.592;10.184;2023-05-07T06:58:08;9.00;;;8.20;;
16015;SDS011;8112;53.592;10.184;2023-05-07T07:03:11;9.10;;;8.00;;
16015;SDS011;8112;53.592;10.184;2023-05-07T07:08:15;8.23;;;7.43;;
16015;SDS011;8112;53.592;10.184;2023-05-07T07:13:19;8.20;;;7.47;;
16015;SDS011;8112;53.592;10.184;2023-05-07T07:18:21;7.87;;;7.17;;
16015;SDS011;8112;53.592;10.184;2023-05-07T07:23:25;8.53;;;7.73;;
16015;SDS011;8112;53.592;10.184;2023-05-07T07:28:28;8.13;;;7.43;;
16015;SDS011;8112;53.592;10.184;2023-05-07T07:33:31;8.10;;;7.33;;
16015;SDS011;8112;53.592;10.184;2023-05-07T07:38:33;8.00;;;7.27;;
16015;SDS011;8112;53.592;10.184;2023-05-07T07:43:37;7.87;;;7.13;;
16015;SDS011;8112;53.592;10.184;2023-05-07T07:48:39;8.23;;;7.53;;
16015;SDS011;8112;53.592;10.184;2023-05-07T07:53:41;8.67;;;7.87;;
16015;SDS011;8112;53.592;10.184;2023-05-07T07:58:45;8.33;;;7.53;;
16015;SDS011;8112;53.592;10.184;2023-05-07T08:03:47;9.10;;;7.30;;
16015;SDS011;8112;53.592;10.184;2023-05-07T08:08:50;8.50;;;7.33;;
16015;SDS011;8112;53.592;10.184;2023-05-07T08:13:53;7.73;;;7.03;;
16015;SDS011;8112;53.592;10.184;2023-05-07T08:18:57;8.10;;;6.90;;
16015;SDS011;8112;53.592;10.184;2023-05-07T08:23:59;7.80;;;7.00;;
16015;SDS011;8112;53.592;10.184;2023-05-07T08:29:04;8.40;;;7.60;;
16015;SDS011;8112;53.592;10.184;2023-05-07T08:34:06;8.10;;;7.30;;
16015;SDS011;8112;53.592;10.184;2023-05-07T08:39:11;7.40;;;6.60;;
16015;SDS011;8112;53.592;10.184;2023-05-07T08:44:15;7.20;;;6.50;;
16015;SDS011;8112;53.592;10.184;2023-05-07T08:49:20;7.20;;;6.60;;
16015;SDS011;8112;53.592;10.184;2023-05-07T08:54:24;7.00;;;6.30;;
16015;SDS011;8112;53.592;10.184;2023-05-07T08:59:31;6.27;;;5.67;;
16015;SDS011;8112;53.592;10.184;2023-05-07T09:04:34;6.00;;;5.50;;
16015;SDS011;8112;53.592;10.184;2023-05-07T09:09:36;6.00;;;5.50;;
16015;SDS011;8112;53.592;10.184;2023-05-07T09:14:40;6.27;;;5.73;;
16015;SDS011;8112;53.592;10.184;2023-05-07T09:19:43;7.33;;;5.63;;
16015;SDS011;8112;53.592;10.184;2023-05-07T09:24:47;6.10;;;5.60;;
16015;SDS011;8112;53.592;10.184;2023-05-07T09:29:52;6.97;;;6.27;;
16015;SDS011;8112;53.592;10.184;2023-05-07T09:34:54;6.10;;;5.60;;
16015;SDS011;8112;53.592;10.184;2023-05-07T09:40:00;6.30;;;5.80;;
16015;SDS011;8112;53.592;10.184;2023-05-07T09:45:07;6.40;;;5.80;;
16015;SDS011;8112;53.592;10.184;2023-05-07T09:50:12;5.67;;;5.17;;
16015;SDS011;8112;53.592;10.184;2023-05-07T09:55:22;6.33;;;5.73;;
16015;SDS011;8112;53.592;10.184;2023-05-07T10:00:29;6.57;;;5.97;;
16015;SDS011;8112;53.592;10.184;2023-05-07T10:05:40;5.97;;;5.57;;
16015;SDS011;8112;53.592;10.184;2023-05-07T10:10:48;5.70;;;5.20;;
16015;SDS011;8112;53.592;10.184;2023-05-07T10:15:57;6.30;;;5.70;;
16015;SDS011;8112;53.592;10.184;2023-05-07T10:21:08;6.20;;;5.70;;
16015;SDS011;8112;53.592;10.184;2023-05-07T10:26:18;4.80;;;4.40;;
16015;SDS011;8112;53.592;10.184;2023-05-07T10:31:30;5.80;;;4.90;;
16015;SDS011;8112;53.592;10.184;2023-05-07T10:36:45;5.37;;;4.97;;
16015;SDS011;8112;53.592;10.184;2023-05-07T10:41:49;4.90;;;4.50;;
16015;SDS011;8112;53.592;10.184;2023-05-07T10:47:08;5.00;;;4.60;;
16015;SDS011;8112;53.592;10.184;2023-05-07T10:52:16;5.13;;;4.63;;
16015;SDS011;8112;53.592;10.184;2023-05-07T10:57:33;5.30;;;4.90;;
16015;SDS011;8112;53.592;10.184;2023-05-07T11:08:21;7.30;;;4.97;;
16015;SDS011;8112;53.592;10.184;2023-05-07T11:13:41;4.80;;;4.40;;
16015;SDS011;8112;53.592;10.184;2023-05-07T11:18:51;4.70;;;4.30;;
16015;SDS011;8112;53.592;10.184;2023-05-07T11:24:04;5.17;;;4.20;;
16015;SDS011;8112;53.592;10.184;2023-05-07T11:29:44;4.27;;;3.90;;
16015;SDS011;8112;53.592;10.184;2023-05-07T11:34:52;4.33;;;3.80;;
16015;SDS011;8112;53.592;10.184;2023-05-07T11:40:02;4.03;;;3.63;;
16015;SDS011;8112;53.592;10.184;2023-05-07T11:45:06;4.20;;;3.90;;
16015;SDS011;8112;53.592;10.184;2023-05-07T11:50:11;3.43;;;3.13;;
16015;SDS011;8112;53.592;10.184;2023-05-07T11:55:14;3.53;;;3.23;;
16015;SDS011;8112;53.592;10.184;2023-05-07T12:00:25;7.53;;;5.97;;
16015;SDS011;8112;53.592;10.184;2023-05-07T12:05:29;5.30;;;4.80;;
16015;SDS011;8112;53.592;10.184;2023-05-07T12:10:31;5.40;;;4.90;;
16015;SDS011;8112;53.592;10.184;2023-05-07T12:15:35;4.27;;;3.97;;
16015;SDS011;8112;53.592;10.184;2023-05-07T12:20:39;3.77;;;3.37;;
16015;SDS011;8112;53.592;10.184;2023-05-07T12:25:42;3.07;;;2.80;;
16015;SDS011;8112;53.592;10.184;2023-05-07T12:30:47;2.93;;;2.73;;
16015;SDS011;8112;53.592;10.184;2023-05-07T12:35:53;2.67;;;2.47;;
16015;SDS011;8112;53.592;10.184;2023-05-07T12:40:56;2.83;;;2.63;;
16015;SDS011;8112;53.592;10.184;2023-05-07T12:45:59;3.40;;;2.63;;
16015;SDS011;8112;53.592;10.184;2023-05-07T12:51:04;2.93;;;2.70;;
16015;SDS011;8112;53.592;10.184;2023-05-07T12:56:07;2.60;;;2.40;;
16015;SDS011;8112;53.592;10.184;2023-05-07T13:01:11;2.70;;;2.50;;
16015;SDS011;8112;53.592;10.184;2023-05-07T13:06:17;2.53;;;2.33;;
16015;SDS011;8112;53.592;10.184;2023-05-07T13:11:18;3.20;;;2.90;;
16015;SDS011;8112;53.592;10.184;2023-05-07T13:16:20;3.03;;;2.60;;
16015;SDS011;8112;53.592;10.184;2023-05-07T13:21:23;2.57;;;2.30;;
16015;SDS011;8112;53.592;10.184;2023-05-07T13:26:26;2.90;;;2.40;;
16015;SDS011;8112;53.592;10.184;2023-05-07T13:31:28;3.50;;;2.67;;
16015;SDS011;8112;53.592;10.184;2023-05-07T13:36:34;2.83;;;2.50;;
16015;SDS011;8112;53.592;10.184;2023-05-07T13:41:40;2.33;;;2.20;;
16015;SDS011;8112;53.592;10.184;2023-05-07T13:46:43;4.43;;;2.20;;
16015;SDS011;8112;53.592;10.184;2023-05-07T13:51:51;2.60;;;2.40;;
16015;SDS011;8112;53.592;10.184;2023-05-07T13:56:53;3.33;;;2.40;;
16015;SDS011;8112;53.592;10.184;2023-05-07T14:01:55;2.40;;;2.20;;
16015;SDS011;8112;53.592;10.184;2023-05-07T14:07:01;2.20;;;2.10;;
16015;SDS011;8112;53.592;10.184;2023-05-07T14:12:03;2.80;;;1.90;;
16015;SDS011;8112;53.592;10.184;2023-05-07T14:17:06;2.60;;;2.40;;
16015;SDS011;8112;53.592;10.184;2023-05-07T14:22:12;3.33;;;2.03;;
16015;SDS011;8112;53.592;10.184;2023-05-07T14:27:15;5.20;;;2.37;;
16015;SDS011;8112;53.592;10.184;2023-05-07T14:32:17;2.70;;;2.50;;
16015;SDS011;8112;53.592;10.184;2023-05-07T14:37:21;2.53;;;2.23;;
16015;SDS011;8112;53.592;10.184;2023-05-07T14:42:24;2.60;;;2.40;;
16015;SDS011;8112;53.592;10.184;2023-05-07T14:47:26;2.90;;;2.60;;
16015;SDS011;8112;53.592;10.184;2023-05-07T14:52:30;3.10;;;2.70;;
16015;SDS011;8112;53.592;10.184;2023-05-07T14:57:31;2.60;;;2.40;;
16015;SDS011;8112;53.592;10.184;2023-05-07T15:02:36;2.50;;;2.30;;
16015;SDS011;8112;53.592;10.184;2023-05-07T15:07:39;2.77;;;2.20;;
16015;SDS011;8112;53.592;10.184;2023-05-07T15:12:41;2.70;;;2.50;;
16015;SDS011;8112;53.592;10.184;2023-05-07T15:17:44;2.90;;;2.43;;
16015;SDS011;8112;53.592;10.184;2023-05-07T15:22:50;2.60;;;2.40;;
16015;SDS011;8112;53.592;10.184;2023-05-07T15:27:54;2.53;;;2.33;;
16015;SDS011;8112;53.592;10.184;2023-05-07T15:32:56;2.20;;;2.00;;
16015;SDS011;8112;53.592;10.184;2023-05-07T15:37:59;2.60;;;2.40;;
16015;SDS011;8112;53.592;10.184;2023-05-07T15:43:03;2.13;;;2.00;;
16015;SDS011;8112;53.592;10.184;2023-05-07T15:48:07;2.17;;;2.00;;
16015;SDS011;8112;53.592;10.184;2023-05-07T15:53:12;2.50;;;2.30;;
16015;SDS011;8112;53.592;10.184;2023-05-07T15:58:13;3.10;;;2.20;;
16015;SDS011;8112;53.592;10.184;2023-05-07T16:03:19;2.47;;;2.27;;
16015;SDS011;8112;53.592;10.184;2023-05-07T16:08:23;3.10;;;2.30;;
16015;SDS011;8112;53.592;10.184;2023-05-07T16:13:25;3.73;;;2.20;;
16015;SDS011;8112;53.592;10.184;2023-05-07T16:18:28;2.27;;;2.00;;
16015;SDS011;8112;53.592;10.184;2023-05-07T16:23:34;2.30;;;2.13;;
16015;SDS011;8112;53.592;10.184;2023-05-07T16:28:36;2.60;;;2.40;;
16015;SDS011;8112;53.592;10.184;2023-05-07T16:33:38;3.87;;;2.40;;
16015;SDS011;8112;53.592;10.184;2023-05-07T16:38:42;3.50;;;2.10;;
16015;SDS011;8112;53.592;10.184;2023-05-07T16:43:44;2.60;;;2.40;;
16015;SDS011;8112;53.592;10.184;2023-05-07T16:48:46;2.50;;;2.20;;
16015;SDS011;8112;53.592;10.184;2023-05-07T16:53:49;2.50;;;2.30;;
16015;SDS011;8112;53.592;10.184;2023-05-07T16:58:52;3.70;;;2.53;;
16015;SDS011;8112;53.592;10.184;2023-05-07T17:03:53;2.83;;;2.30;;
16015;SDS011;8112;53.592;10.184;2023-05-07T17:08:57;3.20;;;2.53;;
16015;SDS011;8112;53.592;10.184;2023-05-07T17:14:00;3.60;;;2.50;;
16015;SDS011;8112;53.592;10.184;2023-05-07T17:19:02;2.90;;;2.70;;
16015;SDS011;8112;53.592;10.184;2023-05-07T17:24:06;3.63;;;2.77;;
16015;SDS011;8112;53.592;10.184;2023-05-07T17:29:08;3.10;;;2.90;;
16015;SDS011;8112;53.592;10.184;2023-05-07T17:34:10;2.80;;;2.60;;
16015;SDS011;8112;53.592;10.184;2023-05-07T17:39:13;5.23;;;2.87;;
16015;SDS011;8112;53.592;10.184;2023-05-07T17:44:15;3.37;;;2.67;;
16015;SDS011;8112;53.592;10.184;2023-05-07T17:49:18;3.23;;;3.03;;
16015;SDS011;8112;53.592;10.184;2023-05-07T17:54:22;2.90;;;2.70;;
16015;SDS011;8112;53.592;10.184;2023-05-07T17:59:27;3.00;;;2.70;;
16015;SDS011;8112;53.592;10.184;2023-05-07T18:04:29;3.13;;;2.83;;
16015;SDS011;8112;53.592;10.184;2023-05-07T18:09:33;3.07;;;2.47;;
16015;SDS011;8112;53.592;10.184;2023-05-07T18:14:34;2.70;;;2.50;;
16015;SDS011;8112;53.592;10.184;2023-05-07T18:19:36;3.00;;;2.80;;
16015;SDS011;8112;53.592;10.184;2023-05-07T18:24:40;3.07;;;2.80;;
16015;SDS011;8112;53.592;10.184;2023-05-07T18:29:42;3.03;;;2.83;;
16015;SDS011;8112;53.592;10.184;2023-05-07T18:34:44;2.93;;;2.73;;
16015;SDS011;8112;53.592;10.184;2023-05-07T18:39:47;3.40;;;3.10;;
16015;SDS011;8112;53.592;10.184;2023-05-07T18:44:49;2.87;;;2.67;;
16015;SDS011;8112;53.592;10.184;2023-05-07T18:49:52;2.73;;;2.53;;
16015;SDS011;8112;53.592;10.184;2023-05-07T18:54:56;3.40;;;3.10;;
16015;SDS011;8112;53.592;10.184;2023-05-07T18:59:57;2.97;;;2.77;;
16015;SDS011;8112;53.592;10.184;2023-05-07T19:05:00;3.27;;;2.97;;
16015;SDS011;8112;53.592;10.184;2023-05-07T19:10:04;2.80;;;2.60;;
16015;SDS011;8112;53.592;10.184;2023-05-07T19:15:07;3.20;;;2.80;;
16015;SDS011;8112;53.592;10.184;2023-05-07T19:20:11;3.57;;;2.93;;
16015;SDS011;8112;53.592;10.184;2023-05-07T19:25:15;3.27;;;2.90;;
16015;SDS011;8112;53.592;10.184;2023-05-07T19:30:18;3.77;;;3.07;;
16015;SDS011;8112;53.592;10.184;2023-05-07T19:35:21;3.33;;;3.07;;
16015;SDS011;8112;53.592;10.184;2023-05-07T19:40:25;3.43;;;3.17;;
16015;SDS011;8112;53.592;10.184;2023-05-07T19:45:27;3.63;;;3.33;;
16015;SDS011;8112;53.592;10.184;2023-05-07T19:50:29;3.17;;;2.90;;
16015;SDS011;8112;53.592;10.184;2023-05-07T19:55:33;3.60;;;3.30;;
16015;SDS011;8112;53.592;10.184;2023-05-07T20:00:35;3.70;;;3.40;;
16015;SDS011;8112;53.592;10.184;2023-05-07T20:05:37;4.50;;;3.70;;
16015;SDS011;8112;53.592;10.184;2023-05-07T20:10:43;4.30;;;3.73;;
16015;SDS011;8112;53.592;10.184;2023-05-07T20:15:44;4.27;;;3.87;;
16015;SDS011;8112;53.592;10.184;2023-05-07T20:20:47;3.80;;;3.50;;
16015;SDS011;8112;53.592;10.184;2023-05-07T20:25:51;3.83;;;3.53;;
16015;SDS011;8112;53.592;10.184;2023-05-07T20:30:53;5.30;;;4.43;;
16015;SDS011;8112;53.592;10.184;2023-05-07T20:35:56;4.67;;;4.20;;
16015;SDS011;8112;53.592;10.184;2023-05-07T20:40:59;4.87;;;4.47;;
16015;SDS011;8112;53.592;10.184;2023-05-07T20:46:06;4.80;;;4.30;;
16015;SDS011;8112;53.592;10.184;2023-05-07T20:51:08;4.30;;;3.93;;
16015;SDS011;8112;53.592;10.184;2023-05-07T20:56:14;5.20;;;4.80;;
16015;SDS011;8112;53.592;10.184;2023-05-07T21:01:16;6.13;;;5.53;;
16015;SDS011;8112;53.592;10.184;2023-05-07T21:06:18;5.73;;;5.20;;
16015;SDS011;8112;53.592;10.184;2023-05-07T21:11:22;5.40;;;5.00;;
16015;SDS011;8112;53.592;10.184;2023-05-07T21:16:24;5.80;;;5.30;;
16015;SDS011;8112;53.592;10.184;2023-05-07T21:21:26;5.33;;;4.73;;
16015;SDS011;8112;53.592;10.184;2023-05-07T21:26:30;4.67;;;4.27;;
16015;SDS011;8112;53.592;10.184;2023-05-07T21:31:32;4.87;;;3.73;;
16015;SDS011;8112;53.592;10.184;2023-05-07T21:36:35;4.50;;;4.13;;
16015;SDS011;8112;53.592;10.184;2023-05-07T21:41:39;4.40;;;4.00;;
16015;SDS011;8112;53.592;10.184;2023-05-07T21:46:41;4.30;;;4.00;;
16015;SDS011;8112;53.592;10.184;2023-05-07T21:51:43;4.20;;;3.90;;
16015;SDS011;8112;53.592;10.184;2023-05-07T21:56:46;3.90;;;3.60;;
16015;SDS011;8112;53.592;10.184;2023-05-07T22:01:47;4.07;;;3.70;;
16015;SDS011;8112;53.592;10.184;2023-05-07T22:06:49;4.33;;;3.80;;
16015;SDS011;8112;53.592;10.184;2023-05-07T22:11:53;3.63;;;3.33;;
16015;SDS011;8112;53.592;10.184;2023-05-07T22:16:55;3.60;;;3.30;;
16015;SDS011;8112;53.592;10.184;2023-05-07T22:21:57;4.07;;;3.70;;
16015;SDS011;8112;53.592;10.184;2023-05-07T22:27:01;3.60;;;3.30;;
16015;SDS011;8112;53.592;10.184;2023-05-07T22:32:04;3.30;;;3.07;;
16015;SDS011;8112;53.592;10.184;2023-05-07T22:37:06;3.70;;;3.40;;
16015;SDS011;8112;53.592;10.184;2023-05-07T22:42:09;3.77;;;3.47;;
16015;SDS011;8112;53.592;10.184;2023-05-07T22:47:11;3.53;;;3.27;;
16015;SDS011;8112;53.592;10.184;2023-05-07T22:52:15;3.37;;;3.17;;
16015;SDS011;8112;53.592;10.184;2023-05-07T22:57:20;3.90;;;3.60;;
16015;SDS011;8112;53.592;10.184;2023-05-07T23:02:22;4.00;;;3.50;;
16015;SDS011;8112;53.592;10.184;2023-05-07T23:07:26;3.77;;;3.47;;
16015;SDS011;8112;53.592;10.184;2023-05-07T23:12:29;3.73;;;3.43;;
16015;SDS011;8112;53.592;10.184;2023-05-07T23:17:32;4.40;;;3.70;;
16015;SDS011;8112;53.592;10.184;2023-05-07T23:22:37;4.70;;;3.33;;
16015;SDS011;8112;53.592;10.184;2023-05-07T23:27:41;4.20;;;3.80;;
16015;SDS011;8112;53.592;10.184;2023-05-07T23:32:43;3.80;;;3.50;;
16015;SDS011;8112;53.592;10.184;2023-05-07T23:37:45;3.90;;;3.50;;
16015;SDS011;8112;53.592;10.184;2023-05-07T23:42:49;3.93;;;3.63;;
16015;SDS011;8112;53.592;10.184;2023-05-07T23:47:51;4.10;;;3.80;;
16015;SDS011;8112;53.592;10.184;2023-05-07T23:52:54;3.63;;;3.33;;
16015;SDS011;8112;53.592;10.184;2023-05-07T23:57:57;4.03;;;3.70;;
